createdAt,value
2019-01-18T00:01:55.943Z,99.20
2019-01-18T00:04:22.063Z,98.80
2019-01-18T00:06:48.174Z,98.70
2019-01-18T00:09:14.350Z,98.50
2019-01-18T00:11:40.467Z,98.60
2019-01-18T00:14:06.566Z,98.30
2019-01-18T00:16:32.675Z,98.30
2019-01-18T00:18:58.772Z,98.10
2019-01-18T00:21:24.906Z,97.70
2019-01-18T00:23:50.988Z,97.70
2019-01-18T00:26:17.070Z,97.60
2019-01-18T00:28:43.196Z,97.70
2019-01-18T00:31:09.327Z,97.70
2019-01-18T00:33:35.437Z,98.00
2019-01-18T00:36:01.763Z,97.40
2019-01-18T00:38:27.860Z,97.50
2019-01-18T00:40:53.958Z,97.60
2019-01-18T00:43:20.045Z,97.30
2019-01-18T00:45:46.162Z,97.10
2019-01-18T00:48:12.274Z,96.90
2019-01-18T00:50:38.387Z,96.80
2019-01-18T00:53:04.487Z,96.80
2019-01-18T00:55:30.605Z,97.00
2019-01-18T00:57:56.728Z,97.00
2019-01-18T01:00:25.578Z,96.80
2019-01-18T01:02:51.711Z,96.80
2019-01-18T01:05:17.792Z,96.90
2019-01-18T01:07:43.919Z,97.00
2019-01-18T01:10:10.014Z,96.80
2019-01-18T01:12:36.150Z,96.50
2019-01-18T01:15:06.046Z,96.60
2019-01-18T01:17:32.199Z,97.00
2019-01-18T01:19:58.291Z,97.00
2019-01-18T01:22:24.417Z,97.00
2019-01-18T01:24:50.515Z,97.50
2019-01-18T01:27:18.542Z,97.10
2019-01-18T01:29:44.631Z,97.20
2019-01-18T01:32:10.780Z,97.10
2019-01-18T01:34:36.866Z,97.10
2019-01-18T01:37:02.955Z,96.80
2019-01-18T01:39:29.061Z,97.00
2019-01-18T01:41:55.414Z,97.00
2019-01-18T01:44:21.530Z,97.10
2019-01-18T01:46:47.625Z,97.20
2019-01-18T01:49:13.725Z,97.30
2019-01-18T01:51:39.814Z,97.50
2019-01-18T01:54:06.039Z,97.70
2019-01-18T01:56:32.135Z,98.30
2019-01-18T01:58:58.236Z,98.50
2019-01-18T02:01:24.350Z,98.60
2019-01-18T02:03:50.468Z,98.40
2019-01-18T02:06:16.564Z,98.10
2019-01-18T02:08:42.661Z,98.00
2019-01-18T02:11:08.789Z,97.90
2019-01-18T02:13:35.275Z,97.90
2019-01-18T02:16:01.397Z,97.70
2019-01-18T02:18:27.489Z,97.50
2019-01-18T02:20:53.603Z,97.50
2019-01-18T02:23:19.691Z,97.30
2019-01-18T02:25:45.831Z,97.30
2019-01-18T02:28:11.944Z,97.10
2019-01-18T02:30:38.089Z,97.10
2019-01-18T02:33:04.278Z,96.90
2019-01-18T02:35:30.398Z,97.00
2019-01-18T02:37:56.486Z,97.00
2019-01-18T02:40:22.600Z,96.60
2019-01-18T02:42:48.716Z,96.60
2019-01-18T02:45:17.316Z,96.70
2019-01-18T02:47:43.410Z,96.80
2019-01-18T02:50:11.015Z,96.50
2019-01-18T02:52:37.132Z,96.60
2019-01-18T02:55:05.544Z,96.60
2019-01-18T02:57:31.663Z,96.60
2019-01-18T03:00:05.026Z,96.60
2019-01-18T03:02:28.799Z,96.40
2019-01-18T03:04:54.887Z,96.30
2019-01-18T03:07:21.006Z,96.20
2019-01-18T03:09:47.092Z,96.20
2019-01-18T03:12:13.203Z,96.30
2019-01-18T03:14:39.295Z,96.30
2019-01-18T03:17:05.402Z,96.20
2019-01-18T03:19:31.499Z,96.20
2019-01-18T03:21:57.615Z,96.30
2019-01-18T03:24:23.703Z,96.10
2019-01-18T03:26:49.816Z,96.10
2019-01-18T03:29:15.927Z,96.20
2019-01-18T03:31:42.016Z,96.00
2019-01-18T03:34:08.122Z,96.20
2019-01-18T03:36:34.207Z,96.10
2019-01-18T03:39:00.320Z,96.00
2019-01-18T03:41:26.424Z,96.00
2019-01-18T03:43:52.532Z,95.90
2019-01-18T03:46:18.623Z,95.70
2019-01-18T03:48:44.754Z,95.70
2019-01-18T03:51:11.176Z,95.80
2019-01-18T03:53:37.286Z,95.70
2019-01-18T03:56:03.398Z,95.50
2019-01-18T03:58:29.520Z,95.50
2019-01-18T04:00:55.607Z,95.50
2019-01-18T04:03:21.728Z,95.40
2019-01-18T04:05:47.810Z,95.50
2019-01-18T04:08:13.935Z,95.70
2019-01-18T04:10:40.123Z,95.70
2019-01-18T04:13:06.239Z,95.30
2019-01-18T04:15:32.450Z,95.60
2019-01-18T04:17:58.537Z,95.70
2019-01-18T04:20:24.715Z,95.70
2019-01-18T04:22:50.807Z,95.80
2019-01-18T04:25:18.823Z,95.70
2019-01-18T04:27:44.903Z,95.70
2019-01-18T04:30:14.327Z,95.60
2019-01-18T04:32:40.456Z,95.70
2019-01-18T04:35:08.295Z,95.60
2019-01-18T04:37:34.393Z,95.60
2019-01-18T04:40:00.514Z,95.40
2019-01-18T04:42:26.617Z,95.30
2019-01-18T04:44:52.707Z,95.30
2019-01-18T04:47:18.824Z,95.40
2019-01-18T04:49:44.910Z,95.60
2019-01-18T04:52:11.035Z,95.40
2019-01-18T04:54:37.147Z,95.40
2019-01-18T04:57:03.263Z,95.70
2019-01-18T04:59:29.358Z,95.30
2019-01-18T05:01:55.509Z,95.30
2019-01-18T05:04:21.690Z,95.50
2019-01-18T05:06:47.812Z,95.60
2019-01-18T05:09:13.907Z,95.90
2019-01-18T05:11:40.022Z,96.10
2019-01-18T05:14:06.211Z,96.60
2019-01-18T05:16:32.823Z,96.80
2019-01-18T05:18:58.924Z,96.90
2019-01-18T05:21:25.062Z,97.30
2019-01-18T05:23:51.159Z,98.00
2019-01-18T05:26:17.249Z,97.50
2019-01-18T05:28:43.370Z,97.70
2019-01-18T05:31:09.470Z,97.70
2019-01-18T05:33:35.582Z,97.80
2019-01-18T05:36:01.700Z,97.90
2019-01-18T05:38:27.818Z,98.20
2019-01-18T05:40:53.915Z,98.20
2019-01-18T05:43:20.022Z,98.40
2019-01-18T05:45:46.130Z,98.60
2019-01-18T05:48:12.243Z,98.60
2019-01-18T05:50:38.487Z,98.80
2019-01-18T05:53:05.492Z,98.90
2019-01-18T05:55:31.641Z,99.00
2019-01-18T05:57:57.898Z,98.90
2019-01-18T06:00:28.406Z,98.90
2019-01-18T06:02:54.599Z,99.00
2019-01-18T06:05:21.023Z,99.00
2019-01-18T06:07:47.106Z,99.00
2019-01-18T06:10:13.615Z,98.90
2019-01-18T06:12:40.121Z,99.10
2019-01-18T06:15:07.755Z,99.20
2019-01-18T06:17:33.847Z,99.10
2019-01-18T06:19:59.977Z,99.20
2019-01-18T06:22:26.059Z,99.30
2019-01-18T06:24:52.432Z,99.40
2019-01-18T06:27:18.527Z,99.30
2019-01-18T06:29:44.663Z,99.50
2019-01-18T06:32:10.746Z,99.70
2019-01-18T06:34:36.969Z,99.80
2019-01-18T06:37:03.070Z,99.90
2019-01-18T06:39:29.175Z,99.90
2019-01-18T06:41:55.470Z,99.90
2019-01-18T06:44:21.580Z,99.90
2019-01-18T06:46:47.683Z,99.90
2019-01-18T06:49:14.619Z,99.90
2019-01-18T06:54:22.536Z,99.90
2019-01-18T06:56:48.656Z,99.90
2019-01-18T06:59:14.742Z,99.90
2019-01-18T07:01:40.855Z,99.90
2019-01-18T07:04:06.942Z,99.90
2019-01-18T07:06:33.048Z,99.90
2019-01-18T07:08:59.150Z,99.90
2019-01-18T07:11:25.252Z,99.90
2019-01-18T07:13:51.347Z,99.90
2019-01-18T07:16:17.460Z,99.90
2019-01-18T07:18:43.699Z,99.90
2019-01-18T07:21:09.782Z,99.90
2019-01-18T07:23:35.904Z,99.90
2019-01-18T07:26:02.033Z,99.90
2019-01-18T07:28:28.143Z,99.90
2019-01-18T07:30:54.238Z,99.90
2019-01-18T07:33:20.332Z,99.90
2019-01-18T07:35:46.430Z,99.90
2019-01-18T07:38:12.534Z,99.90
2019-01-18T07:40:38.621Z,99.90
2019-01-18T07:43:04.820Z,99.90
2019-01-18T07:45:30.947Z,99.90
2019-01-18T07:47:57.058Z,99.90
2019-01-18T07:50:23.143Z,99.90
2019-01-18T07:52:49.277Z,99.90
2019-01-18T07:55:15.407Z,99.90
2019-01-18T07:57:41.529Z,99.90
2019-01-18T08:00:16.670Z,99.90
2019-01-18T08:02:42.774Z,99.90
2019-01-18T08:05:09.484Z,99.90
2019-01-18T08:07:35.592Z,99.90
2019-01-18T08:10:01.684Z,99.90
2019-01-18T08:12:27.767Z,99.90
2019-01-18T08:14:53.874Z,99.90
2019-01-18T08:17:19.977Z,99.90
2019-01-18T08:19:46.080Z,99.90
2019-01-18T08:22:12.187Z,99.90
2019-01-18T08:24:38.308Z,99.90
2019-01-18T08:27:04.399Z,99.90
2019-01-18T08:29:30.501Z,99.90
2019-01-18T08:31:56.604Z,99.90
2019-01-18T08:34:22.700Z,99.90
2019-01-18T08:36:48.805Z,99.90
2019-01-18T08:39:14.893Z,99.90
2019-01-18T08:41:41.003Z,99.90
2019-01-18T08:44:07.100Z,99.90
2019-01-18T08:46:33.196Z,99.90
2019-01-18T08:48:59.299Z,99.90
2019-01-18T08:51:25.387Z,99.90
2019-01-18T08:53:51.496Z,99.90
2019-01-18T08:56:17.648Z,99.90
2019-01-18T08:58:43.994Z,99.90
2019-01-18T09:01:10.096Z,99.90
2019-01-18T09:03:36.199Z,99.90
2019-01-18T09:06:02.292Z,99.90
2019-01-18T09:08:28.481Z,99.20
2019-01-18T09:10:54.587Z,98.50
2019-01-18T09:13:20.696Z,97.90
2019-01-18T09:15:46.787Z,97.80
2019-01-18T09:18:15.760Z,97.10
2019-01-18T09:20:41.861Z,97.10
2019-01-18T09:23:07.966Z,96.90
2019-01-18T09:25:34.142Z,96.60
2019-01-18T09:28:00.222Z,96.00
2019-01-18T09:30:30.522Z,96.20
2019-01-18T09:32:56.602Z,95.70
2019-01-18T09:35:24.470Z,95.50
2019-01-18T09:37:51.272Z,96.40
2019-01-18T09:40:19.982Z,96.30
2019-01-18T09:42:46.604Z,96.70
2019-01-18T09:45:13.102Z,96.20
2019-01-18T09:47:39.193Z,96.10
2019-01-18T09:50:17.253Z,95.50
2019-01-18T09:52:43.552Z,95.80
2019-01-18T09:55:09.682Z,95.70
2019-01-18T09:57:35.770Z,94.80
2019-01-18T10:00:11.418Z,94.50
2019-01-18T10:02:37.518Z,94.90
2019-01-18T10:05:06.220Z,95.00
2019-01-18T10:07:32.332Z,95.10
2019-01-18T10:09:58.424Z,94.70
2019-01-18T10:12:24.523Z,94.10
2019-01-18T10:14:50.610Z,94.10
2019-01-18T10:17:18.798Z,94.20
2019-01-18T10:19:44.900Z,94.30
2019-01-18T10:22:11.010Z,93.40
2019-01-18T10:24:37.122Z,93.00
2019-01-18T10:27:03.217Z,93.10
2019-01-18T10:29:29.419Z,93.20
2019-01-18T10:31:56.173Z,93.20
2019-01-18T10:34:22.839Z,93.10
2019-01-18T10:36:48.952Z,93.20
2019-01-18T10:39:17.800Z,93.60
2019-01-18T10:41:44.034Z,93.60
2019-01-18T10:44:10.141Z,92.70
2019-01-18T10:46:36.232Z,92.20
2019-01-18T10:49:02.495Z,92.30
2019-01-18T10:51:28.578Z,92.50
2019-01-18T10:53:54.685Z,92.50
2019-01-18T10:56:20.803Z,92.10
2019-01-18T10:58:46.924Z,91.20
2019-01-18T11:01:13.007Z,91.00
2019-01-18T11:03:39.120Z,90.30
2019-01-18T11:06:05.236Z,88.80
2019-01-18T11:08:31.367Z,86.40
2019-01-18T11:10:57.474Z,86.00
2019-01-18T11:13:23.591Z,87.20
2019-01-18T11:15:49.691Z,88.40
2019-01-18T11:18:16.043Z,86.50
2019-01-18T11:20:51.034Z,85.60
2019-01-18T11:23:19.372Z,85.00
2019-01-18T11:25:45.493Z,81.70
2019-01-18T11:28:11.683Z,78.20
2019-01-18T11:30:37.810Z,77.40
2019-01-18T11:33:03.907Z,76.90
2019-01-18T11:35:30.004Z,76.40
2019-01-18T11:37:56.089Z,77.10
2019-01-18T11:40:22.698Z,75.40
2019-01-18T11:42:48.794Z,76.30
2019-01-18T11:45:14.995Z,76.30
2019-01-18T11:47:41.114Z,75.30
2019-01-18T11:50:16.279Z,74.30
2019-01-18T11:52:42.368Z,74.60
2019-01-18T11:55:08.514Z,72.60
2019-01-18T11:57:34.611Z,70.00
2019-01-18T12:00:00.724Z,69.60
2019-01-18T12:02:26.820Z,69.40
2019-01-18T12:04:52.925Z,71.50
2019-01-18T12:07:19.049Z,71.30
2019-01-18T12:09:45.163Z,72.00
2019-01-18T12:12:11.257Z,71.40
2019-01-18T12:14:37.379Z,73.10
2019-01-18T12:17:03.569Z,66.20
2019-01-18T12:19:29.681Z,56.60
2019-01-18T12:21:55.781Z,54.70
2019-01-18T12:24:21.891Z,53.40
2019-01-18T12:26:48.013Z,54.00
2019-01-18T12:29:14.098Z,58.00
2019-01-18T12:31:41.219Z,61.60
2019-01-18T12:34:07.316Z,63.40
2019-01-18T12:36:33.428Z,61.20
2019-01-18T12:38:59.531Z,56.00
2019-01-18T12:41:25.638Z,49.80
2019-01-18T12:43:51.735Z,45.40
2019-01-18T12:46:17.823Z,41.80
2019-01-18T12:48:43.964Z,39.70
2019-01-18T12:51:10.135Z,38.10
2019-01-18T12:53:36.248Z,35.80
2019-01-18T12:56:02.412Z,36.80
2019-01-18T12:58:28.526Z,36.90
2019-01-18T13:00:54.619Z,35.70
2019-01-18T13:03:20.737Z,36.40
2019-01-18T13:05:46.874Z,38.20
2019-01-18T13:08:13.006Z,38.80
2019-01-18T13:10:39.126Z,39.20
2019-01-18T13:13:05.244Z,38.70
2019-01-18T13:15:35.271Z,37.20
2019-01-18T13:18:01.370Z,37.00
2019-01-18T13:20:27.499Z,36.20
2019-01-18T13:22:53.628Z,36.00
2019-01-18T13:25:19.784Z,36.00
2019-01-18T13:27:45.892Z,35.50
2019-01-18T13:30:17.521Z,35.80
2019-01-18T13:32:43.712Z,35.30
2019-01-18T13:35:09.837Z,36.10
2019-01-18T13:37:35.981Z,36.00
2019-01-18T13:40:06.369Z,35.70
2019-01-18T13:42:32.716Z,37.20
2019-01-18T13:44:58.845Z,37.50
2019-01-18T13:47:24.943Z,38.10
2019-01-18T13:49:51.088Z,38.80
2019-01-18T13:52:17.286Z,39.90
2019-01-18T13:54:43.474Z,41.60
2019-01-18T13:57:12.291Z,43.00
2019-01-18T13:59:37.634Z,43.80
2019-01-18T14:02:03.744Z,45.40
2019-01-18T14:04:29.892Z,47.20
2019-01-18T14:06:55.998Z,49.20
2019-01-18T14:09:22.119Z,50.00
2019-01-18T14:11:48.218Z,51.40
2019-01-18T14:14:14.336Z,52.80
2019-01-18T14:16:40.462Z,54.20
2019-01-18T14:19:06.695Z,55.40
2019-01-18T14:21:32.813Z,57.70
2019-01-18T14:23:58.959Z,58.50
2019-01-18T14:26:25.064Z,60.10
2019-01-18T14:28:51.179Z,62.80
2019-01-18T14:31:17.305Z,65.50
2019-01-18T14:33:43.412Z,68.00
2019-01-18T14:36:09.529Z,69.30
2019-01-18T14:38:35.636Z,70.70
2019-01-18T14:41:01.766Z,71.00
2019-01-18T14:43:27.909Z,70.90
2019-01-18T14:45:54.037Z,72.80
2019-01-18T14:48:20.147Z,73.80
2019-01-18T14:50:46.259Z,74.20
2019-01-18T14:53:12.363Z,75.30
2019-01-18T14:55:38.508Z,76.20
2019-01-18T14:58:06.455Z,76.90
2019-01-18T15:00:34.463Z,78.00
2019-01-18T15:03:02.506Z,79.00
2019-01-18T15:05:29.045Z,79.50
2019-01-18T15:07:55.292Z,80.70
2019-01-18T15:10:23.236Z,81.60
2019-01-18T15:12:51.932Z,81.80
2019-01-18T15:15:18.046Z,82.60
2019-01-18T15:17:46.683Z,82.90
2019-01-18T15:20:21.885Z,83.90
2019-01-18T15:22:48.555Z,83.90
2019-01-18T15:25:14.966Z,84.90
2019-01-18T15:27:41.096Z,85.50
2019-01-18T15:30:11.036Z,86.10
2019-01-18T15:32:37.249Z,87.10
2019-01-18T15:35:07.080Z,87.70
2019-01-18T15:37:33.219Z,88.40
2019-01-18T15:40:00.670Z,89.10
2019-01-18T15:42:26.866Z,89.70
2019-01-18T15:44:53.113Z,90.10
2019-01-18T15:47:19.303Z,90.20
2019-01-18T15:49:45.481Z,90.50
2019-01-18T15:52:11.660Z,90.80
2019-01-18T15:54:37.838Z,91.00
2019-01-18T15:57:03.959Z,91.20
2019-01-18T15:59:30.098Z,91.60
2019-01-18T16:01:56.207Z,91.70
2019-01-18T16:04:22.310Z,91.90
2019-01-18T16:06:48.432Z,92.20
2019-01-18T16:09:14.538Z,92.40
2019-01-18T16:11:40.654Z,92.50
2019-01-18T16:14:06.792Z,92.70
2019-01-18T16:16:33.653Z,92.90
2019-01-18T16:19:00.134Z,92.90
2019-01-18T16:21:26.309Z,93.00
2019-01-18T16:23:52.460Z,93.10
2019-01-18T16:26:18.588Z,93.20
2019-01-18T16:28:46.667Z,93.30
2019-01-18T16:31:12.873Z,93.50
2019-01-18T16:33:38.975Z,93.60
2019-01-18T16:36:05.091Z,94.00
2019-01-18T16:38:31.245Z,93.70
2019-01-18T16:40:57.463Z,93.70
2019-01-18T16:43:29.205Z,93.90
2019-01-18T16:45:55.338Z,94.10
2019-01-18T16:48:21.442Z,94.10
2019-01-18T16:50:47.579Z,94.10
2019-01-18T16:53:13.715Z,94.10
2019-01-18T16:55:39.873Z,94.30
2019-01-18T16:58:05.966Z,94.20
2019-01-18T17:00:35.198Z,94.30
2019-01-18T17:03:01.321Z,94.40
2019-01-18T17:05:27.457Z,94.40
2019-01-18T17:07:53.574Z,94.40
2019-01-18T17:10:19.783Z,94.50
2019-01-18T17:12:45.990Z,94.60
2019-01-18T17:15:13.796Z,94.60
2019-01-18T17:17:39.944Z,94.70
2019-01-18T17:20:28.163Z,95.00
2019-01-18T17:22:54.277Z,94.70
2019-01-18T17:25:20.393Z,94.90
2019-01-18T17:27:46.544Z,95.00
2019-01-18T17:30:20.574Z,94.80
2019-01-18T17:32:47.111Z,94.90
2019-01-18T17:35:23.117Z,95.00
2019-01-18T17:37:53.071Z,95.10
2019-01-18T17:40:26.031Z,95.10
2019-01-18T17:43:12.666Z,95.10
2019-01-18T17:45:59.183Z,95.20
2019-01-18T17:48:32.189Z,95.20
2019-01-18T17:51:17.098Z,95.20
2019-01-18T17:54:05.329Z,95.20
2019-01-18T17:56:44.506Z,95.30
2019-01-18T17:59:20.344Z,95.30
2019-01-18T18:02:23.667Z,95.30
2019-01-18T18:05:05.564Z,95.30
2019-01-18T18:08:07.649Z,95.20
2019-01-18T18:10:52.675Z,95.20
2019-01-18T18:13:35.001Z,95.30
2019-01-18T18:16:07.965Z,95.50
2019-01-18T18:18:49.477Z,95.40
2019-01-18T18:21:25.411Z,95.30
2019-01-18T18:24:04.212Z,95.30
2019-01-18T18:26:46.404Z,95.30
2019-01-18T18:29:16.354Z,95.40
2019-01-18T18:32:18.146Z,95.20
2019-01-18T18:35:13.820Z,95.20
2019-01-18T18:37:52.804Z,95.30
2019-01-18T18:40:28.763Z,95.30
2019-01-18T18:43:04.954Z,95.30
2019-01-18T18:45:57.888Z,95.30
2019-01-18T18:48:30.863Z,95.40
2019-01-18T18:51:00.892Z,95.30
2019-01-18T18:53:48.998Z,95.30
2019-01-18T18:56:24.530Z,95.30
2019-01-18T18:59:12.287Z,95.20
2019-01-18T19:01:57.089Z,95.20
2019-01-18T19:04:27.011Z,95.30
2019-01-18T19:07:18.208Z,95.50
2019-01-18T19:10:11.212Z,95.50
2019-01-18T19:12:41.178Z,95.40
2019-01-18T19:15:22.502Z,95.60
2019-01-18T19:17:55.384Z,95.60
2019-01-18T19:20:39.589Z,95.50
2019-01-18T19:23:09.617Z,95.50
2019-01-18T19:25:45.279Z,95.50
2019-01-18T19:28:18.248Z,95.50
2019-01-18T19:30:57.284Z,95.60
2019-01-18T19:33:39.523Z,95.60
2019-01-18T19:36:21.200Z,95.50
2019-01-18T19:38:59.963Z,95.40
2019-01-18T19:41:50.954Z,95.40
2019-01-18T19:44:23.938Z,95.50
2019-01-18T19:46:59.631Z,95.40
2019-01-18T19:49:35.367Z,95.40
2019-01-18T19:52:11.408Z,95.30
2019-01-18T19:54:44.278Z,95.00
2019-01-18T19:57:35.116Z,95.30
2019-01-18T20:00:14.408Z,95.30
2019-01-18T20:02:56.373Z,95.30
2019-01-18T20:05:29.413Z,95.20
2019-01-18T20:08:20.561Z,95.30
2019-01-18T20:11:08.903Z,95.20
2019-01-18T20:13:55.475Z,95.20
2019-01-18T20:16:51.492Z,95.10
2019-01-18T20:19:45.855Z,95.00
2019-01-18T20:22:30.382Z,95.00
2019-01-18T20:25:18.962Z,95.00
2019-01-18T20:28:07.280Z,95.00
2019-01-18T20:30:52.371Z,95.00
2019-01-18T20:33:43.577Z,95.00
2019-01-18T20:36:31.384Z,94.90
2019-01-18T20:39:17.678Z,94.90
2019-01-18T20:42:13.604Z,94.90
2019-01-18T20:45:01.883Z,94.90
2019-01-18T20:48:05.238Z,94.90
2019-01-18T20:50:35.178Z,94.90
2019-01-18T20:53:05.159Z,94.90
2019-01-18T20:55:47.033Z,95.00
2019-01-18T20:58:35.095Z,95.00
2019-01-18T21:01:17.171Z,94.90
2019-01-18T21:04:25.350Z,95.00
2019-01-18T21:06:52.510Z,94.90
2019-01-18T21:09:54.637Z,95.00
2019-01-18T21:12:39.677Z,94.90
2019-01-18T21:15:12.634Z,94.90
2019-01-18T21:18:03.569Z,94.90
2019-01-18T21:20:42.879Z,94.90
2019-01-18T21:23:22.117Z,94.80
2019-01-18T21:25:55.173Z,94.80
2019-01-18T21:28:41.861Z,94.70
2019-01-18T21:31:41.562Z,94.70
2019-01-18T21:34:23.301Z,94.60
2019-01-18T21:37:20.129Z,94.60
2019-01-18T21:40:09.340Z,94.60
2019-01-18T21:42:56.991Z,94.60
2019-01-18T21:45:27.230Z,94.70
2019-01-18T21:48:05.657Z,94.60
2019-01-18T21:50:56.792Z,94.60
2019-01-18T21:53:29.551Z,94.60
2019-01-18T21:56:05.031Z,94.60
2019-01-18T21:58:37.936Z,94.60
2019-01-18T22:01:19.921Z,94.60
2019-01-18T22:03:49.922Z,94.60
2019-01-18T22:06:25.960Z,94.60
2019-01-18T22:08:58.694Z,94.70
2019-01-18T22:11:31.347Z,94.70
2019-01-18T22:14:07.208Z,94.80
2019-01-18T22:16:42.996Z,94.90
2019-01-18T22:19:46.907Z,94.90
2019-01-18T22:22:16.816Z,95.00
2019-01-18T22:25:06.543Z,95.00
2019-01-18T22:27:42.460Z,95.00
2019-01-18T22:30:46.085Z,95.20
2019-01-18T22:33:25.081Z,95.20
2019-01-18T22:36:31.636Z,95.20
2019-01-18T22:39:10.434Z,95.20
2019-01-18T22:41:55.461Z,95.30
2019-01-18T22:44:59.931Z,95.40
2019-01-18T22:47:55.650Z,95.50
2019-01-18T22:50:46.299Z,95.50
2019-01-18T22:53:22.244Z,95.60
2019-01-18T22:55:57.922Z,95.60
2019-01-18T22:58:52.083Z,95.60
2019-01-18T23:01:46.722Z,95.60
2019-01-18T23:04:19.484Z,95.50
2019-01-18T23:06:55.763Z,95.40
2019-01-18T23:09:48.520Z,95.60
2019-01-18T23:12:21.165Z,95.20
2019-01-18T23:15:02.975Z,95.20
2019-01-18T23:17:36.180Z,95.10
2019-01-18T23:20:18.029Z,95.00
2019-01-18T23:25:31.799Z,95.00
2019-01-18T23:28:10.526Z,95.00
2019-01-18T23:30:46.577Z,95.00
2019-01-18T23:33:34.771Z,94.90
2019-01-18T23:36:04.697Z,95.00
2019-01-18T23:38:49.771Z,95.00
2019-01-18T23:41:36.222Z,95.00
2019-01-18T23:44:19.022Z,94.90
2019-01-18T23:47:06.470Z,94.90
2019-01-18T23:49:42.204Z,94.90
2019-01-18T23:52:28.650Z,94.90
2019-01-18T23:55:01.226Z,94.90
2019-01-18T23:57:34.234Z,94.80
